Van Tassell, WY (82242)

7:16 PM MDT on July 30, 2015 (GMT -0600)
LEMS | | Change Station
CLOSE
Current Station
Personal Weather Station
Location: Lusk, WY
Elevation: 5070 ft
Nearby Weather Stations

Elev 5070 ft 42.76 °N, 104.45 °W | Updated 4 minutes ago

Clear
Clear
78.6 °F
Feels Like 78 °F
N
3.0
Wind Variable Wind from ENE
Gusts 3.0 mph

Today
High -- | Low -- °F
--% Chance of Precip.
Yesterday
High -- | Low -- °F
Precip. -- in
5:45 AM 8:19 PM
Full, 100% visible
Pressure 30.08 in
Visibility 10.0 miles
Clouds Clear
Heat Index 78 °F
Dew Point 43 °F
Humidity 28%
Rainfall 0.00 in
Snow Depth Not available.
UV 1 out of 12
Pollen 6.30 out of 12
Air Quality Not available.
Flu Activity Not available.
METAR KTOR 310053Z AUTO 13006KT 10SM CLR 29/07 A3021 RMK AO2 SLP185 T02940072

More Conditions Fewer Conditions

Pressure 30.08 in
Visibility 10.0 miles
Clouds Clear
Heat Index 78 °F
Dew Point 43 °F
Humidity 28%
Rainfall 0.00 in
Snow Depth Not available.
UV 1 out of 12
Pollen 6.30 out of 12
Air Quality Not available.
Flu Activity Not available.
METAR KTOR 310053Z AUTO 13006KT 10SM CLR 29/07 A3021 RMK AO2 SLP185 T02940072

More Conditions Fewer Conditions

10-Day Weather Forecast

×

Almanac

Astronomy

Jul. 30, 2015 Rise Set
Actual Time
Civil Twilight
Nautical Twilight
Astronomical Twilight
Moon
Length of Visible Light
Length of Day
Tomorrow will be .
, % of the Moon is Illuminated

Today's Extremes

State Highs State Lows

Community

WunderPhotos

Upload Photos

1,842,556 photos uploaded!

WunderBlogs® & News

Nearby

Air Quality

  Air Quality AQ Index Pollutant
Not available.

Snow Depth

Station Depth Elevation

Earthquake Activity

City Distance Mag. Time & Date
Minimum magnitude displayed is 2.5.

Coastal Water Temperatures

Place Temperature

Stations

Nearby Weather Stations

Station Location Temp. Windchill Dew Point Humidity Wind Precip. Elev Updated Type